Time;durP1;ratioP1;P1;durP2;ratioP2;P2;SDS_P1;SDS_P2;PMS_P1;PMS_P2;Temp;Humidity;BMP_temperature;BMP_pressure;BME280_temperature;BME280_humidity;BME280_pressure;Samples;Min_cycle;Max_cycle;Signal;HPM_P1;HPM_P2
2021/08/31 04:03:01;;;;;;;31.85;18.92;;;13.20;99.90;;;;;;6096076;23;20160;-69
2021/08/31 04:05:28;;;;;;;29.10;18.90;;;13.20;99.90;;;;;;6097088;23;20201;-68
2021/08/31 04:07:54;;;;;;;25.58;18.55;;;13.20;99.90;;;;;;6097471;23;20188;-68
2021/08/31 04:10:21;;;;;;;24.55;17.52;;;13.10;99.90;;;;;;6097325;23;20193;-69
2021/08/31 04:12:49;;;;;;;32.03;19.33;;;13.10;99.90;;;;;;6096724;23;20486;-71
2021/08/31 04:15:16;;;;;;;33.33;20.20;;;13.10;99.90;;;;;;6096478;23;20168;-71
2021/08/31 04:17:42;;;;;;;24.52;17.77;;;13.10;99.90;;;;;;6096871;23;20185;-71
2021/08/31 04:20:12;;;;;;;26.80;18.42;;;13.10;99.90;;;;;;6097169;23;20196;-71
2021/08/31 04:22:39;;;;;;;26.35;18.95;;;13.10;99.90;;;;;;6096596;23;20634;-71
2021/08/31 04:25:06;;;;;;;24.10;17.55;;;13.10;99.90;;;;;;6097057;23;20240;-71
2021/08/31 04:27:33;;;;;;;28.05;16.75;;;13.10;99.90;;;;;;6097157;23;20488;-71
2021/08/31 04:29:59;;;;;;;23.42;15.95;;;13.10;99.90;;;;;;6096322;23;20634;-71
2021/08/31 04:32:26;;;;;;;26.90;17.42;;;13.00;99.90;;;;;;6096322;23;20655;-72
2021/08/31 04:34:55;;;;;;;22.08;16.55;;;13.00;99.90;;;;;;6096443;23;20677;-71
2021/08/31 04:37:23;;;;;;;23.98;15.95;;;13.00;99.90;;;;;;6097144;23;20468;-71
2021/08/31 04:39:50;;;;;;;21.98;16.42;;;13.00;99.90;;;;;;6096870;23;20215;-71
2021/08/31 04:42:16;;;;;;;20.38;15.18;;;13.00;99.90;;;;;;6096405;23;20591;-71
2021/08/31 04:44:43;;;;;;;20.65;16.48;;;13.00;99.90;;;;;;6096432;23;20506;-71
2021/08/31 04:47:10;;;;;;;23.95;16.67;;;13.00;99.90;;;;;;6096852;23;20585;-71
2021/08/31 04:49:36;;;;;;;23.15;16.90;;;13.00;99.90;;;;;;6096160;23;20513;-71
2021/08/31 04:52:04;;;;;;;25.17;16.85;;;13.00;99.90;;;;;;6096639;23;20205;-70
2021/08/31 04:54:33;;;;;;;24.42;15.80;;;13.00;99.90;;;;;;6096749;23;20212;-71
2021/08/31 04:57:00;;;;;;;22.33;16.80;;;12.90;99.90;;;;;;6097093;23;20177;-71
2021/08/31 04:59:26;;;;;;;21.13;15.80;;;13.00;99.90;;;;;;6096803;23;20188;-71
2021/08/31 05:01:53;;;;;;;22.75;15.55;;;13.00;99.90;;;;;;6134266;23;20211;-71
2021/08/31 05:04:20;;;;;;;23.90;16.30;;;13.00;99.90;;;;;;6154284;23;20184;-71
2021/08/31 05:06:47;;;;;;;21.35;14.55;;;13.00;99.90;;;;;;6155320;23;20203;-71
2021/08/31 05:09:13;;;;;;;19.00;13.95;;;13.10;99.90;;;;;;6155362;23;20493;-71
2021/08/31 05:11:41;;;;;;;25.30;16.42;;;13.10;99.90;;;;;;6164729;23;20233;-71
2021/08/31 05:14:08;;;;;;;19.35;14.75;;;13.10;99.90;;;;;;6154590;23;20184;-71
2021/08/31 05:16:35;;;;;;;23.35;14.52;;;13.10;99.90;;;;;;6154402;23;20238;-71
2021/08/31 05:19:01;;;;;;;20.85;14.73;;;13.20;99.90;;;;;;6154508;23;20183;-71
2021/08/31 05:21:29;;;;;;;19.48;15.52;;;13.20;99.90;;;;;;6155209;23;20341;-71
2021/08/31 05:23:58;;;;;;;17.97;14.90;;;13.20;99.90;;;;;;6154938;23;20266;-71
2021/08/31 05:26:25;;;;;;;21.17;15.07;;;13.20;99.90;;;;;;6155158;23;20443;-72
2021/08/31 05:28:53;;;;;;;20.50;14.93;;;13.20;99.90;;;;;;6155150;23;20183;-72
2021/08/31 05:31:19;;;;;;;20.08;15.00;;;13.20;99.90;;;;;;6154516;23;20457;-72
2021/08/31 05:33:46;;;;;;;18.27;14.23;;;13.30;99.90;;;;;;6154303;23;20238;-73
2021/08/31 05:36:13;;;;;;;15.43;13.60;;;13.30;99.90;;;;;;6154959;23;20418;-73
2021/08/31 05:38:39;;;;;;;20.27;13.70;;;13.30;99.90;;;;;;6155053;23;20754;-69
2021/08/31 05:41:06;;;;;;;17.53;13.37;;;13.40;99.90;;;;;;6154846;23;20513;-69
2021/08/31 05:43:33;;;;;;;13.52;11.40;;;13.40;99.90;;;;;;6154766;23;20429;-68
2021/08/31 05:46:01;;;;;;;13.27;11.83;;;13.40;99.90;;;;;;6164155;23;20329;-68
2021/08/31 05:48:27;;;;;;;16.47;13.23;;;13.50;99.90;;;;;;6154386;23;20427;-71
2021/08/31 05:50:54;;;;;;;16.90;12.47;;;13.60;99.90;;;;;;6154495;23;20458;-71
2021/08/31 05:53:21;;;;;;;15.53;12.80;;;13.60;99.90;;;;;;6154642;23;20465;-69
2021/08/31 05:55:47;;;;;;;15.97;12.17;;;13.60;99.90;;;;;;6154830;23;20430;-69
2021/08/31 05:58:14;;;;;;;13.90;12.13;;;13.70;99.90;;;;;;6154871;23;20426;-69
2021/08/31 06:00:41;;;;;;;17.87;11.50;;;13.70;99.90;;;;;;6154090;23;20751;-69
2021/08/31 06:03:09;;;;;;;14.50;11.53;;;13.80;99.90;;;;;;6153480;23;20439;-69
2021/08/31 06:05:37;;;;;;;14.40;11.43;;;13.80;99.90;;;;;;6155122;23;20790;-69
2021/08/31 06:08:05;;;;;;;11.93;10.70;;;13.80;99.90;;;;;;6154597;23;20477;-69
2021/08/31 06:10:31;;;;;;;11.97;10.77;;;13.90;99.90;;;;;;6154743;23;20757;-69
2021/08/31 06:13:00;;;;;;;13.47;10.47;;;13.90;99.90;;;;;;6154309;23;20526;-69
2021/08/31 06:15:27;;;;;;;14.60;10.63;;;14.00;99.90;;;;;;6154464;23;20421;-69
2021/08/31 06:17:53;;;;;;;12.17;10.00;;;14.10;99.90;;;;;;6153570;23;20994;-69
2021/08/31 06:20:21;;;;;;;13.53;10.63;;;14.10;99.90;;;;;;6154286;23;20430;-69
2021/08/31 06:22:48;;;;;;;11.60;10.03;;;14.20;99.90;;;;;;6154207;23;20422;-69
2021/08/31 06:25:15;;;;;;;10.57;9.47;;;14.30;99.90;;;;;;6154528;23;20481;-68
2021/08/31 06:27:41;;;;;;;11.50;10.37;;;14.30;99.90;;;;;;6154101;23;20447;-68
2021/08/31 06:30:09;;;;;;;13.27;10.40;;;14.40;99.90;;;;;;6153656;23;20489;-69
2021/08/31 06:32:36;;;;;;;10.00;9.00;;;14.50;99.90;;;;;;6153750;23;20481;-69
2021/08/31 06:35:02;;;;;;;10.37;9.30;;;14.60;99.90;;;;;;6154085;23;20439;-68
2021/08/31 06:37:31;;;;;;;12.20;10.07;;;14.70;99.90;;;;;;6154625;23;20429;-68
2021/08/31 06:39:57;;;;;;;12.60;11.40;;;14.80;99.90;;;;;;6155944;23;20426;-68
2021/08/31 06:42:24;;;;;;;10.10;9.20;;;14.80;99.90;;;;;;6156587;23;20447;-68
2021/08/31 06:44:51;;;;;;;10.53;9.53;;;14.90;99.90;;;;;;6155718;23;20554;-68
2021/08/31 06:47:17;;;;;;;9.73;8.73;;;14.90;99.90;;;;;;6156137;23;20454;-69
2021/08/31 06:49:44;;;;;;;10.00;9.10;;;14.90;99.90;;;;;;6155823;23;20431;-69
2021/08/31 06:52:11;;;;;;;10.23;9.30;;;15.00;99.90;;;;;;6156216;23;20458;-69
2021/08/31 06:54:39;;;;;;;11.37;9.53;;;15.00;99.90;;;;;;6156234;23;20431;-69
2021/08/31 06:57:06;;;;;;;10.33;9.30;;;15.00;99.90;;;;;;6156483;23;20493;-68
2021/08/31 06:59:33;;;;;;;10.30;9.30;;;15.10;99.90;;;;;;6156493;23;20748;-69
2021/08/31 07:02:00;;;;;;;11.10;8.90;;;15.10;99.90;;;;;;6155696;23;20538;-69
2021/08/31 07:04:26;;;;;;;9.67;8.70;;;15.20;99.90;;;;;;6155653;23;20427;-69
2021/08/31 07:06:53;;;;;;;13.17;9.80;;;15.20;99.90;;;;;;6156700;23;20443;-68
2021/08/31 07:09:20;;;;;;;10.20;9.20;;;15.30;99.90;;;;;;6155989;23;20438;-68
2021/08/31 07:11:48;;;;;;;9.90;9.00;;;15.30;99.90;;;;;;6156605;23;20439;-69
2021/08/31 07:14:15;;;;;;;9.30;8.40;;;15.40;99.90;;;;;;6156040;23;20437;-68
2021/08/31 07:16:41;;;;;;;10.60;9.60;;;15.50;99.90;;;;;;6156062;23;20426;-69
2021/08/31 07:19:10;;;;;;;9.30;8.30;;;15.50;99.90;;;;;;6155403;23;20896;-69
2021/08/31 07:21:37;;;;;;;10.17;9.07;;;15.50;99.90;;;;;;6156075;23;20549;-68
2021/08/31 07:24:04;;;;;;;14.20;9.97;;;15.50;99.90;;;;;;6155570;23;20429;-69
2021/08/31 07:26:30;;;;;;;9.23;7.90;;;15.50;99.90;;;;;;6156137;23;20447;-68
2021/08/31 07:28:58;;;;;;;10.67;8.73;;;15.60;99.90;;;;;;6155810;23;20450;-68
2021/08/31 07:31:25;;;;;;;12.90;9.40;;;15.60;99.90;;;;;;6155516;23;20465;-68
2021/08/31 07:33:52;;;;;;;9.80;8.73;;;15.60;99.90;;;;;;6155729;23;20423;-68
2021/08/31 07:36:21;;;;;;;8.80;7.90;;;15.70;99.90;;;;;;6156297;23;20418;-68
2021/08/31 07:38:48;;;;;;;12.00;8.03;;;15.80;99.90;;;;;;6156063;23;20506;-68
2021/08/31 07:41:15;;;;;;;8.00;7.30;;;15.80;99.90;;;;;;6156334;23;20494;-67
2021/08/31 07:43:42;;;;;;;9.67;8.83;;;15.90;99.90;;;;;;6155791;23;20765;-67
2021/08/31 07:46:10;;;;;;;8.50;7.73;;;16.00;99.90;;;;;;6155726;23;20426;-67
2021/08/31 07:48:37;;;;;;;8.37;7.50;;;16.00;99.90;;;;;;6155878;23;20426;-67
2021/08/31 07:51:03;;;;;;;8.93;8.13;;;16.10;99.90;;;;;;6155392;23;20443;-67
2021/08/31 07:53:30;;;;;;;9.00;8.20;;;16.20;99.90;;;;;;6155574;23;20422;-68
2021/08/31 07:55:57;;;;;;;9.17;8.27;;;16.20;99.90;;;;;;6156036;23;20415;-67
2021/08/31 07:58:23;;;;;;;10.63;8.60;;;16.30;99.90;;;;;;6155796;23;20526;-67
2021/08/31 08:00:50;;;;;;;8.60;7.87;;;16.40;99.90;;;;;;6155159;23;20451;-67
2021/08/31 08:03:18;;;;;;;8.47;7.43;;;16.40;99.90;;;;;;6155226;23;20414;-67
2021/08/31 08:05:45;;;;;;;7.50;6.80;;;16.40;99.90;;;;;;6155937;23;20426;-67
2021/08/31 08:08:11;;;;;;;8.07;5.93;;;16.50;99.90;;;;;;6155063;23;20822;-67
2021/08/31 08:10:38;;;;;;;12.83;6.77;;;16.60;99.90;;;;;;6156262;23;20449;-67
2021/08/31 08:13:05;;;;;;;7.73;7.03;;;16.60;99.90;;;;;;6155436;23;20769;-67
2021/08/31 08:15:32;;;;;;;7.83;6.40;;;16.70;99.90;;;;;;6155700;23;20423;-67
2021/08/31 08:17:59;;;;;;;6.77;6.17;;;16.80;99.90;;;;;;6155089;23;20453;-68
2021/08/31 08:20:27;;;;;;;8.03;6.57;;;16.90;99.90;;;;;;6155683;23;20912;-68
2021/08/31 08:22:54;;;;;;;7.20;6.60;;;17.00;99.90;;;;;;6155205;23;20456;-68
2021/08/31 08:25:21;;;;;;;7.37;6.73;;;17.10;99.90;;;;;;6156499;23;20430;-68
2021/08/31 08:27:47;;;;;;;6.20;5.60;;;17.20;99.90;;;;;;6155819;23;20463;-68
2021/08/31 08:30:14;;;;;;;6.90;6.40;;;17.30;99.90;;;;;;6155262;23;20773;-68
2021/08/31 08:32:41;;;;;;;6.70;6.10;;;17.40;99.90;;;;;;6154902;23;20423;-68
2021/08/31 08:35:11;;;;;;;6.37;5.77;;;17.50;99.90;;;;;;6155777;23;20419;-68
2021/08/31 08:37:39;;;;;;;7.63;6.13;;;17.60;99.90;;;;;;6155453;23;20446;-68
2021/08/31 08:40:08;;;;;;;7.20;6.50;;;17.60;99.90;;;;;;6155387;23;20466;-68
2021/08/31 08:42:34;;;;;;;5.80;5.40;;;17.70;99.90;;;;;;6155827;23;20454;-68
2021/08/31 08:45:01;;;;;;;6.13;5.57;;;17.80;99.90;;;;;;6155428;23;20489;-68
2021/08/31 08:47:28;;;;;;;6.73;5.40;;;17.90;99.90;;;;;;6155600;23;20473;-67
2021/08/31 08:49:54;;;;;;;6.20;5.80;;;17.90;99.90;;;;;;6154422;23;20555;-69
2021/08/31 08:52:21;;;;;;;6.43;5.70;;;18.10;99.90;;;;;;6155353;23;20450;-68
2021/08/31 08:54:49;;;;;;;6.33;5.83;;;18.20;99.90;;;;;;6155105;23;20426;-67
2021/08/31 08:57:18;;;;;;;6.00;5.60;;;18.20;99.90;;;;;;6155693;23;20922;-68
2021/08/31 08:59:48;;;;;;;5.90;5.37;;;18.30;99.90;;;;;;6154741;23;20454;-68
2021/08/31 09:02:32;;;;;;;7.13;6.53;;;18.40;99.90;;;;;;6154588;23;20450;-68
2021/08/31 09:04:59;;;;;;;5.50;5.00;;;18.40;99.90;;;;;;6155188;23;20836;-68
2021/08/31 09:07:27;;;;;;;5.63;5.27;;;18.50;99.90;;;;;;6155530;23;20447;-68
2021/08/31 09:10:13;;;;;;;5.27;4.80;;;18.50;99.90;;;;;;6154757;23;20423;-68
2021/08/31 09:12:41;;;;;;;5.50;5.03;;;18.60;99.90;;;;;;6155050;23;20418;-70
2021/08/31 09:15:27;;;;;;;6.17;5.57;;;18.60;99.90;;;;;;6154296;23;20449;-67
2021/08/31 09:18:11;;;;;;;5.43;5.00;;;18.70;99.90;;;;;;6154543;23;20407;-67
2021/08/31 09:20:44;;;;;;;6.40;5.90;;;18.70;99.90;;;;;;6154716;23;20443;-67
2021/08/31 09:23:16;;;;;;;6.70;6.10;;;18.80;99.90;;;;;;6154374;23;20407;-68
2021/08/31 09:25:46;;;;;;;6.10;5.70;;;18.80;99.90;;;;;;6154561;23;20865;-68
2021/08/31 09:28:25;;;;;;;6.73;6.23;;;18.90;99.90;;;;;;6155010;23;20434;-68
2021/08/31 09:31:01;;;;;;;7.00;6.40;;;19.00;99.90;;;;;;6154430;23;20791;-68
2021/08/31 09:33:30;;;;;;;5.77;5.40;;;19.00;99.90;;;;;;6154345;23;20423;-68
2021/08/31 09:36:04;;;;;;;6.80;6.30;;;19.10;99.90;;;;;;6154436;23;20497;-69
2021/08/31 09:38:49;;;;;;;6.27;5.87;;;19.20;99.90;;;;;;6154857;23;20438;-69
2021/08/31 09:41:35;;;;;;;6.40;5.90;;;19.30;99.90;;;;;;6154493;23;20453;-68
2021/08/31 09:44:04;;;;;;;5.57;5.10;;;19.40;99.90;;;;;;6154535;23;20407;-68
2021/08/31 09:46:48;;;;;;;6.70;5.30;;;19.40;99.90;;;;;;6154309;23;20419;-68
2021/08/31 09:49:19;;;;;;;5.37;4.83;;;19.40;99.90;;;;;;6154066;23;20439;-68
2021/08/31 09:51:59;;;;;;;5.00;4.70;;;19.50;99.90;;;;;;6154459;23;20461;-67
2021/08/31 09:54:26;;;;;;;5.07;4.77;;;19.60;99.90;;;;;;6154564;23;20410;-68
2021/08/31 09:56:54;;;;;;;5.97;5.57;;;19.80;99.90;;;;;;6154774;23;20473;-67
2021/08/31 09:59:22;;;;;;;5.57;5.20;;;19.90;99.90;;;;;;6154663;23;20530;-68
2021/08/31 10:01:52;;;;;;;5.20;5.00;;;20.00;99.90;;;;;;6153474;23;21026;-68
2021/08/31 10:04:19;;;;;;;5.90;5.50;;;19.90;99.90;;;;;;6154006;23;20423;-68
2021/08/31 10:06:46;;;;;;;4.70;4.50;;;20.00;99.90;;;;;;6154622;23;20423;-68
2021/08/31 10:09:14;;;;;;;5.73;5.33;;;20.10;99.90;;;;;;6154579;23;20476;-68
2021/08/31 10:11:40;;;;;;;5.37;4.97;;;20.00;99.90;;;;;;6154176;23;20521;-70
2021/08/31 10:14:10;;;;;;;5.50;5.20;;;20.10;99.90;;;;;;6153779;23;20968;-70
2021/08/31 10:16:37;;;;;;;4.87;4.67;;;20.10;99.90;;;;;;6154034;23;20423;-70
2021/08/31 10:19:05;;;;;;;5.10;4.70;;;20.00;99.90;;;;;;6154103;23;20422;-70
2021/08/31 10:21:31;;;;;;;4.67;4.27;;;20.10;99.90;;;;;;6154024;23;20872;-70
2021/08/31 10:23:59;;;;;;;5.77;5.27;;;20.30;99.90;;;;;;6154148;23;20427;-70
2021/08/31 10:26:31;;;;;;;4.77;4.47;;;20.40;99.90;;;;;;6154106;23;20881;-70
2021/08/31 10:29:27;;;;;;;4.83;4.60;;;20.50;99.90;;;;;;6154476;23;20441;-70
2021/08/31 10:31:55;;;;;;;4.60;4.40;;;20.50;99.90;;;;;;6150485;23;20529;-70
2021/08/31 10:34:40;;;;;;;4.40;4.10;;;20.60;99.90;;;;;;6153437;23;20939;-68
2021/08/31 10:37:08;;;;;;;3.90;3.60;;;20.80;99.90;;;;;;6154610;23;20399;-67
2021/08/31 10:39:47;;;;;;;4.10;3.90;;;20.90;99.90;;;;;;6154605;23;20419;-69
2021/08/31 10:42:41;;;;;;;4.40;4.20;;;21.00;99.90;;;;;;6154136;23;20438;-69
2021/08/31 10:45:31;;;;;;;4.30;3.90;;;21.00;99.90;;;;;;6153770;23;20530;-69
2021/08/31 10:47:59;;;;;;;4.73;4.43;;;21.00;99.90;;;;;;6153815;23;20469;-70
2021/08/31 10:50:27;;;;;;;3.90;3.70;;;21.00;99.90;;;;;;6154334;23;20422;-68
2021/08/31 10:53:05;;;;;;;4.63;4.33;;;21.00;99.90;;;;;;6154411;23;20431;-68
2021/08/31 10:55:35;;;;;;;6.93;4.00;;;21.10;99.90;;;;;;6154219;23;20413;-68
2021/08/31 10:58:04;;;;;;;3.93;3.73;;;21.00;99.90;;;;;;6153979;23;20418;-68
2021/08/31 11:01:02;;;;;;;4.50;3.80;;;21.00;99.90;;;;;;6153874;23;20443;-68
2021/08/31 11:03:33;;;;;;;4.50;4.10;;;21.20;99.90;;;;;;6153572;23;20492;-68
2021/08/31 11:06:32;;;;;;;4.20;4.00;;;21.10;99.90;;;;;;6153922;23;20411;-67
2021/08/31 11:09:17;;;;;;;3.80;3.60;;;21.00;99.90;;;;;;6163687;23;20438;-68
2021/08/31 11:11:46;;;;;;;4.60;4.30;;;20.90;99.90;;;;;;6153290;23;20469;-68
2021/08/31 11:14:14;;;;;;;3.87;3.67;;;20.80;99.90;;;;;;6153839;23;20433;-69
2021/08/31 11:16:46;;;;;;;4.10;3.60;;;20.80;99.90;;;;;;6153328;23;20426;-67
2021/08/31 11:19:27;;;;;;;4.37;3.43;;;20.80;99.90;;;;;;6153682;23;20522;-67
2021/08/31 11:21:56;;;;;;;4.07;3.73;;;20.90;99.90;;;;;;6154230;23;20453;-67
2021/08/31 11:24:24;;;;;;;4.20;4.00;;;21.00;99.90;;;;;;6154058;23;20766;-67
2021/08/31 11:26:57;;;;;;;4.67;4.20;;;21.20;99.90;;;;;;6155620;23;20429;-67
2021/08/31 11:29:24;;;;;;;4.00;3.90;;;21.30;99.90;;;;;;6156190;23;20438;-67
2021/08/31 11:31:58;;;;;;;4.63;4.23;;;21.30;99.90;;;;;;6155509;23;20446;-67
2021/08/31 11:34:24;;;;;;;4.67;4.27;;;21.30;99.90;;;;;;6154951;23;20762;-67
2021/08/31 11:37:02;;;;;;;3.80;3.60;;;21.30;99.90;;;;;;6155961;23;20422;-67
2021/08/31 11:39:29;;;;;;;3.90;3.70;;;21.40;99.90;;;;;;6156111;23;20463;-67
2021/08/31 11:41:55;;;;;;;4.37;4.17;;;21.40;99.90;;;;;;6155527;23;20449;-67
2021/08/31 11:44:22;;;;;;;4.30;4.10;;;21.40;99.90;;;;;;6155582;23;20423;-67
2021/08/31 11:46:51;;;;;;;4.10;3.90;;;21.40;99.90;;;;;;6154790;23;20497;-68
2021/08/31 11:49:21;;;;;;;3.73;3.63;;;21.40;99.90;;;;;;6155003;23;20452;-68
2021/08/31 11:52:01;;;;;;;3.90;3.70;;;21.40;99.90;;;;;;6155758;23;20442;-68
2021/08/31 11:54:30;;;;;;;3.90;3.70;;;21.30;99.90;;;;;;6155230;23;20422;-69
2021/08/31 11:56:59;;;;;;;3.93;3.70;;;21.40;99.90;;;;;;6155289;23;20901;-69
2021/08/31 11:59:50;;;;;;;3.63;3.53;;;21.40;99.90;;;;;;6155737;23;20403;-69
2021/08/31 12:02:19;;;;;;;3.90;3.80;;;21.50;99.90;;;;;;6126473;23;20458;-69
2021/08/31 12:05:02;;;;;;;3.20;3.10;;;21.50;99.90;;;;;;6154942;23;20425;-69
2021/08/31 12:07:31;;;;;;;3.60;3.40;;;21.40;99.90;;;;;;6155443;23;20413;-69
2021/08/31 12:10:01;;;;;;;3.10;3.00;;;21.40;99.90;;;;;;6155303;23;20407;-69
2021/08/31 12:12:29;;;;;;;3.80;3.60;;;21.30;99.90;;;;;;6155393;23;20525;-69
2021/08/31 12:14:56;;;;;;;3.57;3.47;;;21.50;99.90;;;;;;6154751;23;20433;-68
2021/08/31 12:17:29;;;;;;;3.80;3.70;;;21.60;99.90;;;;;;6155581;23;20426;-68
2021/08/31 12:20:10;;;;;;;3.70;3.40;;;21.70;99.90;;;;;;6154551;23;20502;-68
2021/08/31 12:22:38;;;;;;;4.97;4.57;;;21.70;99.90;;;;;;6155255;23;20414;-68
2021/08/31 12:25:06;;;;;;;3.60;3.40;;;21.60;99.90;;;;;;6155535;23;20565;-68
2021/08/31 12:27:38;;;;;;;4.87;4.63;;;21.40;99.90;;;;;;6155031;23;20904;-69
2021/08/31 12:30:06;;;;;;;3.20;3.10;;;21.20;99.90;;;;;;6154598;23;20509;-68
2021/08/31 12:32:33;;;;;;;3.73;3.53;;;21.20;99.90;;;;;;6154420;23;20923;-69
2021/08/31 12:35:23;;;;;;;4.37;4.07;;;21.20;99.90;;;;;;6155136;23;20430;-68
2021/08/31 12:38:08;;;;;;;4.30;4.10;;;21.30;99.90;;;;;;6154890;23;20834;-68
2021/08/31 12:40:37;;;;;;;4.60;4.30;;;21.40;99.90;;;;;;6155612;23;20446;-68
2021/08/31 12:43:07;;;;;;;3.83;3.63;;;21.60;99.90;;;;;;6154816;23;20514;-69
2021/08/31 12:45:34;;;;;;;3.70;3.40;;;21.70;99.90;;;;;;6154576;23;20403;-68
2021/08/31 12:48:02;;;;;;;4.27;4.07;;;21.80;99.90;;;;;;6155016;23;20459;-68
2021/08/31 12:50:31;;;;;;;3.80;3.60;;;21.80;99.90;;;;;;6155036;23;20770;-67
2021/08/31 12:53:06;;;;;;;4.33;3.63;;;21.70;99.90;;;;;;6154779;23;20497;-70
2021/08/31 12:55:34;;;;;;;3.60;3.50;;;21.50;99.90;;;;;;6154899;23;20931;-68
2021/08/31 12:58:26;;;;;;;4.03;3.77;;;21.40;99.90;;;;;;6155070;23;20423;-68
2021/08/31 13:01:07;;;;;;;3.90;3.60;;;21.50;99.90;;;;;;6154389;23;20451;-68
2021/08/31 13:03:34;;;;;;;3.63;3.53;;;21.70;99.90;;;;;;6154001;23;20442;-68
2021/08/31 13:06:02;;;;;;;3.97;3.80;;;21.80;99.90;;;;;;6154679;23;20876;-68
2021/08/31 13:08:29;;;;;;;4.00;3.80;;;21.90;99.90;;;;;;6154804;23;20458;-68
2021/08/31 13:10:56;;;;;;;3.60;3.50;;;22.00;99.90;;;;;;6155090;23;20442;-68
2021/08/31 13:13:29;;;;;;;3.90;3.70;;;22.00;99.90;;;;;;6157656;23;20932;-68
2021/08/31 13:15:56;;;;;;;3.60;3.50;;;22.00;99.90;;;;;;6166785;23;20470;-70
2021/08/31 13:18:23;;;;;;;4.47;4.10;;;22.00;99.90;;;;;;6169449;23;20446;-68
2021/08/31 13:20:50;;;;;;;4.27;4.07;;;21.80;99.90;;;;;;6166901;23;20443;-68
2021/08/31 13:23:18;;;;;;;4.60;4.13;;;21.70;99.90;;;;;;6160818;23;20485;-68
2021/08/31 13:25:45;;;;;;;3.80;3.60;;;21.60;99.90;;;;;;6167647;23;20721;-68
2021/08/31 13:28:12;;;;;;;3.83;3.63;;;21.50;99.90;;;;;;6164311;23;20450;-68
2021/08/31 13:30:39;;;;;;;4.20;4.00;;;21.60;99.90;;;;;;6165962;23;20462;-68
2021/08/31 13:33:06;;;;;;;3.90;3.70;;;21.60;99.90;;;;;;6164697;23;20477;-68
2021/08/31 13:35:33;;;;;;;3.97;3.77;;;21.70;99.90;;;;;;6166566;23;20429;-68
2021/08/31 13:37:59;;;;;;;3.93;3.80;;;21.80;99.90;;;;;;6164357;23;20493;-70
2021/08/31 13:40:27;;;;;;;5.30;4.30;;;22.00;99.90;;;;;;6163290;23;20781;-68
2021/08/31 13:42:55;;;;;;;3.63;3.53;;;22.00;99.90;;;;;;6162693;23;20431;-67
2021/08/31 13:45:22;;;;;;;3.33;3.13;;;22.10;99.90;;;;;;6163510;23;20433;-67
2021/08/31 13:47:49;;;;;;;3.87;3.67;;;22.10;99.90;;;;;;6163861;23;20423;-68
2021/08/31 13:50:16;;;;;;;4.30;4.10;;;22.20;99.90;;;;;;6163732;23;20423;-67
2021/08/31 13:52:42;;;;;;;4.20;4.10;;;22.20;99.90;;;;;;6164069;23;20434;-67
2021/08/31 13:55:10;;;;;;;4.50;4.20;;;22.10;99.90;;;;;;6164346;23;20494;-67
2021/08/31 13:57:38;;;;;;;3.93;3.73;;;22.00;99.90;;;;;;6160528;23;20492;-67
2021/08/31 14:00:06;;;;;;;4.00;3.83;;;22.00;99.90;;;;;;6154305;23;20419;-68
2021/08/31 14:02:32;;;;;;;3.93;3.83;;;21.90;99.90;;;;;;6153590;23;20431;-69
2021/08/31 14:04:59;;;;;;;3.93;3.73;;;21.90;99.90;;;;;;6153894;23;20438;-69
2021/08/31 14:07:26;;;;;;;4.20;4.00;;;21.90;99.90;;;;;;6154527;23;20449;-67
2021/08/31 14:09:52;;;;;;;3.93;3.67;;;21.90;99.90;;;;;;6153884;23;21184;-68
2021/08/31 14:12:19;;;;;;;4.20;4.00;;;22.00;99.90;;;;;;6153706;23;20449;-68
2021/08/31 14:14:47;;;;;;;4.27;4.07;;;22.00;99.90;;;;;;6153202;23;20426;-69
2021/08/31 14:17:14;;;;;;;4.07;3.97;;;22.20;99.90;;;;;;6153966;23;21022;-68
2021/08/31 14:19:41;;;;;;;4.43;4.23;;;22.30;99.90;;;;;;6153397;23;20743;-68
2021/08/31 14:22:08;;;;;;;4.07;3.77;;;22.40;99.90;;;;;;6153602;23;20924;-68
2021/08/31 14:24:35;;;;;;;3.83;3.70;;;22.40;99.90;;;;;;6153964;23;20423;-69
2021/08/31 14:27:02;;;;;;;4.40;4.10;;;22.40;99.90;;;;;;6153970;23;20744;-68
2021/08/31 14:29:28;;;;;;;4.67;4.47;;;22.50;99.90;;;;;;6153716;23;20455;-68
2021/08/31 14:31:56;;;;;;;4.53;4.27;;;22.50;99.90;;;;;;6153656;23;20446;-68
2021/08/31 14:34:23;;;;;;;4.80;4.50;;;22.50;99.90;;;;;;6153176;23;20426;-68
2021/08/31 14:36:50;;;;;;;4.33;4.00;;;22.40;99.90;;;;;;6154262;23;20423;-68
2021/08/31 14:39:16;;;;;;;4.70;4.40;;;22.30;99.90;;;;;;6154226;23;20419;-69
2021/08/31 14:41:43;;;;;;;3.90;3.80;;;22.10;99.90;;;;;;6153669;23;20609;-68
2021/08/31 14:44:10;;;;;;;4.40;4.20;;;22.00;99.90;;;;;;6153899;23;20775;-68
2021/08/31 14:46:37;;;;;;;4.50;4.10;;;22.00;99.90;;;;;;6153235;23;20901;-68
2021/08/31 14:49:05;;;;;;;3.33;3.23;;;22.00;99.90;;;;;;6153634;23;20710;-68
2021/08/31 14:51:31;;;;;;;4.23;3.93;;;22.00;99.90;;;;;;6153834;23;20525;-68
2021/08/31 14:53:58;;;;;;;4.00;3.83;;;22.00;99.90;;;;;;6153939;23;20493;-68
2021/08/31 14:56:25;;;;;;;5.00;4.67;;;22.00;99.90;;;;;;6154109;23;20501;-67
2021/08/31 14:58:51;;;;;;;4.40;4.10;;;22.00;99.90;;;;;;6154151;23;20727;-68
2021/08/31 15:01:18;;;;;;;3.93;3.73;;;22.00;99.90;;;;;;6155498;23;20454;-69
2021/08/31 15:03:45;;;;;;;3.97;3.80;;;22.00;99.90;;;;;;6155178;23;20493;-68
2021/08/31 15:06:13;;;;;;;4.50;4.20;;;22.00;99.90;;;;;;6155833;23;20583;-68
2021/08/31 15:08:40;;;;;;;4.40;4.20;;;22.00;99.90;;;;;;6155525;23;20805;-67
2021/08/31 15:11:06;;;;;;;4.10;3.93;;;22.00;99.90;;;;;;6155707;23;20442;-71
2021/08/31 15:13:33;;;;;;;4.07;3.87;;;21.90;99.90;;;;;;6155581;23;20473;-70
2021/08/31 15:16:00;;;;;;;4.40;4.20;;;21.90;99.90;;;;;;6154649;23;20442;-69
2021/08/31 15:18:26;;;;;;;4.40;4.20;;;21.90;99.90;;;;;;6155392;23;20427;-69
2021/08/31 15:20:53;;;;;;;5.63;4.00;;;21.90;99.90;;;;;;6155974;23;20447;-70
2021/08/31 15:23:21;;;;;;;4.83;4.50;;;21.90;99.90;;;;;;6155655;23;20434;-70
2021/08/31 15:25:48;;;;;;;4.63;4.43;;;21.90;99.90;;;;;;6155969;23;20422;-70
2021/08/31 15:28:14;;;;;;;4.27;4.10;;;21.90;99.90;;;;;;6155851;23;20422;-69
2021/08/31 15:30:41;;;;;;;3.80;3.60;;;21.90;99.90;;;;;;6155545;23;20454;-69
2021/08/31 15:33:07;;;;;;;4.13;3.93;;;21.90;99.90;;;;;;6155357;23;20446;-70
2021/08/31 15:35:34;;;;;;;4.20;4.10;;;21.90;99.90;;;;;;6155902;23;20422;-70
2021/08/31 15:38:01;;;;;;;4.37;4.17;;;21.90;99.90;;;;;;6155952;23;20723;-70
2021/08/31 15:40:29;;;;;;;4.30;3.90;;;21.90;99.90;;;;;;6155666;23;20941;-70
2021/08/31 15:42:58;;;;;;;5.60;5.30;;;21.90;99.90;;;;;;6155677;23;20428;-70
2021/08/31 15:45:25;;;;;;;4.07;3.87;;;21.90;99.90;;;;;;6155359;23;20520;-70
2021/08/31 15:47:52;;;;;;;4.77;4.47;;;21.80;99.90;;;;;;6155657;23;20457;-69
2021/08/31 15:50:19;;;;;;;4.47;4.20;;;21.80;99.90;;;;;;6155645;23;20469;-70
2021/08/31 15:52:46;;;;;;;4.67;4.40;;;21.80;99.90;;;;;;6155621;23;20426;-70
2021/08/31 15:55:12;;;;;;;4.73;4.43;;;21.80;99.90;;;;;;6156042;23;20426;-69
2021/08/31 15:57:40;;;;;;;4.30;4.10;;;21.80;99.90;;;;;;6155329;23;20869;-69
2021/08/31 16:00:08;;;;;;;4.53;4.23;;;21.70;99.90;;;;;;6155052;23;20437;-69
2021/08/31 16:02:35;;;;;;;4.57;4.37;;;21.70;99.90;;;;;;6154541;23;20434;-69
2021/08/31 16:05:01;;;;;;;5.03;4.73;;;21.70;99.90;;;;;;6155662;23;20477;-69
2021/08/31 16:07:28;;;;;;;4.60;4.30;;;21.80;99.90;;;;;;6155342;23;20454;-69
2021/08/31 16:09:54;;;;;;;4.03;3.83;;;21.70;99.90;;;;;;6155220;23;20518;-70
2021/08/31 16:12:21;;;;;;;5.03;4.63;;;21.70;99.90;;;;;;6154869;23;20450;-70
2021/08/31 16:14:49;;;;;;;5.10;4.70;;;21.70;99.90;;;;;;6155026;23;20426;-71
2021/08/31 16:17:16;;;;;;;4.40;4.10;;;21.70;99.90;;;;;;6155376;23;20422;-71
2021/08/31 16:19:42;;;;;;;5.17;4.97;;;21.70;99.90;;;;;;6154348;23;20850;-70
2021/08/31 16:22:09;;;;;;;5.03;4.53;;;21.60;99.90;;;;;;6154646;23;20443;-70
2021/08/31 16:24:36;;;;;;;5.00;4.63;;;21.60;99.90;;;;;;6154580;23;20442;-70
2021/08/31 16:27:04;;;;;;;4.00;3.80;;;21.60;99.90;;;;;;6155193;23;20501;-71
2021/08/31 16:29:32;;;;;;;5.13;4.73;;;21.50;99.90;;;;;;6154945;23;20450;-71
2021/08/31 16:32:00;;;;;;;4.60;4.40;;;21.40;99.90;;;;;;6154822;23;20450;-70
2021/08/31 16:34:26;;;;;;;5.40;4.87;;;21.40;99.90;;;;;;6154457;23;20442;-71
2021/08/31 16:36:53;;;;;;;4.47;4.27;;;21.30;99.90;;;;;;6155098;23;20423;-71
2021/08/31 16:39:20;;;;;;;4.93;4.63;;;21.20;99.90;;;;;;6154710;23;20803;-70
2021/08/31 16:41:47;;;;;;;4.60;4.40;;;21.10;99.90;;;;;;6155049;23;20497;-70
2021/08/31 16:44:14;;;;;;;5.20;4.80;;;21.10;99.90;;;;;;6154950;23;20422;-70
2021/08/31 16:46:40;;;;;;;5.73;5.17;;;21.10;99.90;;;;;;6154395;23;20430;-70
2021/08/31 16:49:08;;;;;;;5.20;4.90;;;21.00;99.90;;;;;;6154099;23;20929;-70
2021/08/31 16:51:35;;;;;;;5.17;4.87;;;21.00;99.90;;;;;;6155162;23;20443;-70
2021/08/31 16:54:02;;;;;;;4.13;3.93;;;20.90;99.90;;;;;;6154556;23;20430;-72